Terminal Aerodrome Forecast
Issued by NWS

Home | Current Version | Previous Version | Text Only | Print | Product List | Glossary On
Versions: 1 2 3 4 5 6 7 8 9 10 11 12 13 14 15 16 17 18
000
FTUS41 KCAR 231125
TAFHUL
TAF
KHUL 231125Z 2312/2412 30011G16KT P6SM OVC025
     FM231300 30013G20KT P6SM BKN040
     FM231600 29017G28KT P6SM BKN050
     FM232200 28012G20KT P6SM SCT050
     FM240000 25005KT P6SM SCT250
     FM240800 22009KT P6SM BKN060=

USA.gov is the U.S. government's official web portal to all federal, state and local government web resources and services.